Time;durP1;ratioP1;P1;durP2;ratioP2;P2;SDS_P1;SDS_P2;PMS_P1;PMS_P2;Temp;Humidity;BMP_temperature;BMP_pressure;BME280_temperature;BME280_humidity;BME280_pressure;Samples;Min_cycle;Max_cycle;Signal;HPM_P1;HPM_P2
2022/10/13 00:00:42;;;;;;;11.22;6.80;;;;;;;18.29;48.62;102447.31;1655224;85;21041;-49
2022/10/13 00:03:09;;;;;;;10.63;7.53;;;;;;;18.29;48.66;102447.31;1655231;85;21089;-50
2022/10/13 00:05:41;;;;;;;11.12;7.28;;;;;;;18.28;48.73;102444.28;1655554;85;21544;-52
2022/10/13 00:08:09;;;;;;;10.55;6.90;;;;;;;18.24;48.98;102445.23;1643538;85;21072;-50
2022/10/13 00:10:40;;;;;;;8.90;6.45;;;;;;;18.21;49.30;102453.23;1652282;85;21093;-51
2022/10/13 00:13:07;;;;;;;9.38;6.85;;;;;;;18.18;49.66;102454.18;1655562;87;21509;-49
2022/10/13 00:15:39;;;;;;;8.83;6.47;;;;;;;18.14;49.95;102449.02;1655283;85;21113;-50
2022/10/13 00:18:06;;;;;;;8.65;6.78;;;;;;;18.13;50.00;102452.58;1655961;87;21143;-50
2022/10/13 00:20:33;;;;;;;8.40;6.53;;;;;;;18.12;50.04;102449.52;1655276;85;21037;-50
2022/10/13 00:23:00;;;;;;;8.38;6.10;;;;;;;18.12;49.82;102446.88;1655705;85;21085;-53
2022/10/13 00:25:27;;;;;;;10.43;6.75;;;;;;;18.11;49.55;102445.17;1649103;85;21129;-52
2022/10/13 00:27:54;;;;;;;8.30;6.17;;;;;;;18.10;49.25;102448.69;1649262;85;21543;-49
2022/10/13 00:30:23;;;;;;;8.13;6.12;;;;;;;18.10;49.02;102442.11;1646888;84;21081;-50
2022/10/13 00:32:50;;;;;;;9.93;6.03;;;;;;;18.06;48.90;102446.60;1646990;85;21550;-49
2022/10/13 00:35:17;;;;;;;9.18;6.60;;;;;;;18.04;48.79;102444.91;1648006;85;21073;-52
2022/10/13 00:37:43;;;;;;;11.30;6.22;;;;;;;18.01;48.57;102442.36;1650164;85;21078;-52
2022/10/13 00:40:11;;;;;;;7.53;5.72;;;;;;;17.98;48.52;102442.42;1647547;85;21514;-50
2022/10/13 00:42:40;;;;;;;9.30;6.28;;;;;;;17.98;48.56;102446.38;1692402;82;21069;-50
2022/10/13 00:45:18;;;;;;;10.13;5.62;;;;;;;17.97;48.65;102449.45;1702192;82;21596;-50
2022/10/13 00:47:48;;;;;;;7.95;6.22;;;;;;;17.99;48.68;102448.13;1670172;84;21022;-49
2022/10/13 00:50:18;;;;;;;10.38;6.28;;;;;;;17.98;48.81;102447.70;1670271;84;20981;-49
2022/10/13 00:52:46;;;;;;;8.55;6.37;;;;;;;17.98;49.05;102447.70;1670079;84;21089;-50
2022/10/13 00:55:20;;;;;;;8.40;6.33;;;;;;;17.99;49.19;102448.97;1670062;84;21038;-49
2022/10/13 00:57:46;;;;;;;9.20;5.97;;;;;;;18.00;49.35;102448.52;1670234;83;21119;-49
2022/10/13 01:00:14;;;;;;;7.28;5.85;;;;;;;18.00;49.51;102438.86;1663649;84;21140;-51
2022/10/13 01:02:41;;;;;;;8.10;5.65;;;;;;;18.00;49.52;102441.94;1662124;85;21048;-52
2022/10/13 01:05:08;;;;;;;11.78;6.45;;;;;;;17.98;49.46;102443.30;1627558;87;21603;-50
2022/10/13 01:07:35;;;;;;;8.30;5.70;;;;;;;17.97;49.58;102443.35;1627194;88;21066;-50
2022/10/13 01:10:02;;;;;;;10.45;5.97;;;;;;;17.96;49.64;102444.23;1626483;87;21551;-54
2022/10/13 01:12:40;;;;;;;8.40;5.80;;;;;;;17.94;49.70;102438.14;1627173;87;21083;-51
2022/10/13 01:15:36;;;;;;;8.35;5.80;;;;;;;17.92;49.80;102442.59;1659012;85;21127;-49
2022/10/13 01:18:18;;;;;;;8.48;5.47;;;;;;;17.89;49.83;102437.81;1658747;85;21076;-50
2022/10/13 01:20:56;;;;;;;7.05;5.42;;;;;;;17.88;49.92;102441.36;1625563;87;21059;-54
2022/10/13 01:24:03;;;;;;;7.08;5.53;;;;;;;17.86;49.92;102441.86;1627276;87;21591;-52
2022/10/13 01:26:53;;;;;;;11.97;5.50;;;;;;;17.84;49.94;102448.93;1681603;84;21521;-53
2022/10/13 01:29:51;;;;;;;6.72;5.58;;;;;;;17.85;49.96;102446.69;1672627;84;21051;-52
2022/10/13 01:32:44;;;;;;;7.65;6.08;;;;;;;17.85;50.05;102444.50;1680840;84;21063;-50
2022/10/13 01:35:16;;;;;;;6.40;5.28;;;;;;;17.81;49.97;102441.09;1664606;85;21591;-49
2022/10/13 01:37:58;;;;;;;9.90;5.95;;;;;;;17.78;49.80;102443.78;1601624;88;21077;-49
2022/10/13 01:40:44;;;;;;;8.77;5.43;;;;;;;17.76;49.83;102449.55;1602032;88;21109;-49
2022/10/13 01:43:22;;;;;;;7.67;5.92;;;;;;;17.72;49.83;102443.94;1601693;88;21090;-49
2022/10/13 01:46:23;;;;;;;6.03;5.45;;;;;;;17.71;49.77;102451.44;1603462;88;21102;-49
2022/10/13 01:48:53;;;;;;;8.18;5.65;;;;;;;17.69;49.62;102454.56;1567258;91;21621;-50
2022/10/13 01:51:20;;;;;;;6.75;5.70;;;;;;;17.68;49.83;102447.55;1552777;91;21563;-49
2022/10/13 01:53:48;;;;;;;7.55;5.42;;;;;;;17.69;49.94;102445.79;1555715;91;21102;-50
2022/10/13 01:56:15;;;;;;;8.60;6.15;;;;;;;17.70;49.92;102451.02;1567146;91;21152;-49
2022/10/13 01:58:44;;;;;;;10.23;6.37;;;;;;;17.71;49.96;102451.44;1562994;91;21091;-50
2022/10/13 02:01:40;;;;;;;9.23;6.03;;;;;;;17.71;49.95;102455.83;1575436;91;21069;-52
2022/10/13 02:04:25;;;;;;;7.90;5.72;;;;;;;17.72;49.94;102461.05;1553587;91;21523;-50
2022/10/13 02:07:17;;;;;;;6.80;5.70;;;;;;;17.71;49.82;102456.70;1594727;90;21022;-49
2022/10/13 02:10:07;;;;;;;9.63;5.53;;;;;;;17.73;49.58;102456.22;1597289;90;21073;-50
2022/10/13 02:12:58;;;;;;;8.20;5.50;;;;;;;17.73;49.40;102458.85;1588232;90;21531;-49
2022/10/13 02:15:39;;;;;;;7.47;5.60;;;;;;;17.73;49.44;102452.71;1567807;91;21128;-49
2022/10/13 02:18:12;;;;;;;7.58;5.50;;;;;;;17.77;49.30;102459.19;1553782;92;21092;-50
2022/10/13 02:20:41;;;;;;;9.00;5.70;;;;;;;17.80;49.25;102449.04;1542519;92;21778;-51
2022/10/13 02:23:12;;;;;;;6.12;5.25;;;;;;;17.83;49.19;102454.21;1542349;93;21052;-52
2022/10/13 02:25:38;;;;;;;7.53;5.35;;;;;;;17.77;49.31;102449.97;1482792;97;21130;-50
2022/10/13 02:28:07;;;;;;;8.38;5.53;;;;;;;17.80;49.20;102449.04;1482732;97;21090;-50
2022/10/13 02:30:38;;;;;;;7.28;5.60;;;;;;;17.79;49.38;102452.11;1480573;97;21538;-49
2022/10/13 02:33:04;;;;;;;8.88;5.37;;;;;;;17.81;49.38;102448.99;1479273;96;21122;-49
2022/10/13 02:35:32;;;;;;;8.03;5.17;;;;;;;17.82;49.40;102446.79;1490127;95;21115;-51
2022/10/13 02:38:00;;;;;;;7.87;5.85;;;;;;;17.83;49.64;102452.45;1511688;94;21065;-49
2022/10/13 02:40:26;;;;;;;7.28;5.62;;;;;;;17.84;49.92;102451.56;1511412;95;21593;-50
2022/10/13 02:42:54;;;;;;;9.00;5.55;;;;;;;17.86;50.06;102452.39;1511555;95;21189;-50
2022/10/13 02:45:21;;;;;;;9.40;5.72;;;;;;;17.90;50.13;102445.27;1511412;95;21138;-49
2022/10/13 02:47:48;;;;;;;6.72;5.37;;;;;;;17.93;50.07;102453.08;1511625;95;21091;-52
2022/10/13 02:50:15;;;;;;;7.10;5.80;;;;;;;17.95;49.89;102454.38;1511594;95;21045;-49
2022/10/13 02:52:43;;;;;;;7.33;5.60;;;;;;;17.97;49.64;102453.89;1511436;95;21105;-51
2022/10/13 02:55:09;;;;;;;8.13;5.42;;;;;;;17.96;49.44;102465.30;1511016;95;21081;-50
2022/10/13 02:57:39;;;;;;;8.45;5.25;;;;;;;17.96;49.27;102461.36;1509886;95;21558;-50
2022/10/13 03:00:08;;;;;;;7.47;5.97;;;;;;;17.97;49.19;102461.78;1504110;95;21157;-50
2022/10/13 03:02:35;;;;;;;7.58;5.60;;;;;;;17.95;49.38;102458.33;1530123;94;22310;-50
2022/10/13 03:05:04;;;;;;;5.92;5.12;;;;;;;17.97;49.29;102456.52;1530166;94;21121;-49
2022/10/13 03:07:31;;;;;;;6.70;5.53;;;;;;;17.98;49.17;102456.47;1530305;94;21121;-49
2022/10/13 03:10:00;;;;;;;5.97;5.30;;;;;;;17.99;49.22;102460.82;1528604;94;21231;-49
2022/10/13 03:12:27;;;;;;;9.68;5.75;;;;;;;18.00;49.31;102465.64;1530183;94;21137;-52
2022/10/13 03:14:53;;;;;;;8.20;5.85;;;;;;;17.98;49.34;102463.50;1546265;91;21049;-49
2022/10/13 03:17:20;;;;;;;8.05;5.60;;;;;;;17.97;49.23;102459.16;1562695;90;21081;-50
2022/10/13 03:19:47;;;;;;;8.70;5.60;;;;;;;17.94;48.70;102461.84;1570098;90;21116;-50
2022/10/13 03:22:15;;;;;;;7.20;5.72;;;;;;;17.89;48.36;102468.09;1644489;82;21585;-50
2022/10/13 03:24:42;;;;;;;7.00;6.08;;;;;;;17.86;48.28;102467.31;1700641;82;21069;-51
2022/10/13 03:27:09;;;;;;;8.00;5.67;;;;;;;17.86;48.44;102464.69;1709204;82;21058;-51
2022/10/13 03:29:36;;;;;;;10.35;5.60;;;;;;;17.84;48.16;102460.78;1710585;82;21569;-50
2022/10/13 03:32:03;;;;;;;10.03;6.00;;;;;;;17.81;47.98;102460.84;1711221;82;21014;-52
2022/10/13 03:34:30;;;;;;;7.87;5.78;;;;;;;17.78;47.81;102456.95;1711317;82;21494;-48
2022/10/13 03:36:57;;;;;;;9.95;6.50;;;;;;;17.75;47.76;102459.68;1703064;82;21030;-50
2022/10/13 03:39:24;;;;;;;7.37;5.83;;;;;;;17.74;47.79;102465.83;1708096;82;21046;-49
2022/10/13 03:41:51;;;;;;;7.08;6.33;;;;;;;17.79;47.71;102463.97;1709110;82;21050;-50
2022/10/13 03:44:17;;;;;;;8.50;6.28;;;;;;;17.76;47.67;102456.13;1706780;83;21050;-50
2022/10/13 03:46:44;;;;;;;7.45;6.28;;;;;;;17.72;47.58;102461.05;1702956;82;21086;-49
2022/10/13 03:49:11;;;;;;;7.47;6.28;;;;;;;17.68;47.61;102463.83;1708059;82;21050;-49
2022/10/13 03:51:39;;;;;;;8.58;6.22;;;;;;;17.62;47.62;102455.59;1707733;82;21038;-54
2022/10/13 03:54:06;;;;;;;8.40;6.20;;;;;;;17.58;47.66;102451.31;1708569;82;21034;-49
2022/10/13 03:56:33;;;;;;;13.45;6.97;;;;;;;17.56;47.78;102453.56;1709816;82;21011;-52
2022/10/13 03:59:03;;;;;;;10.85;6.62;;;;;;;17.53;47.86;102452.33;1706458;82;21034;-55
2022/10/13 04:01:31;;;;;;;9.38;6.80;;;;;;;17.51;47.95;102452.38;1709254;82;21011;-50
2022/10/13 04:04:01;;;;;;;10.53;6.95;;;;;;;17.49;47.91;102446.28;1708056;82;21031;-51
2022/10/13 04:06:27;;;;;;;10.88;7.65;;;;;;;17.46;47.90;102445.44;1699966;82;21050;-50
2022/10/13 04:08:54;;;;;;;11.12;6.62;;;;;;;17.42;48.14;102447.28;1705173;82;21008;-49
2022/10/13 04:11:22;;;;;;;9.33;6.42;;;;;;;17.40;48.26;102454.34;1706380;82;21035;-49
2022/10/13 04:13:55;;;;;;;10.68;6.30;;;;;;;17.37;48.62;102455.72;1707913;83;21494;-51
2022/10/13 04:16:27;;;;;;;10.50;7.00;;;;;;;17.34;48.85;102457.12;1709572;82;21070;-51
2022/10/13 04:19:01;;;;;;;9.80;7.05;;;;;;;17.31;49.11;102457.17;1697032;81;21517;-53
2022/10/13 04:21:28;;;;;;;;;;;;;;;17.29;49.35;102464.72;1710042;83;21019;-49
2022/10/13 04:23:56;;;;;;;9.40;6.67;;;;;;;17.28;49.70;102466.47;1708389;83;20123;-49
2022/10/13 04:26:24;;;;;;;9.43;6.65;;;;;;;17.27;49.83;102463.41;1707661;82;21038;-50
2022/10/13 04:28:52;;;;;;;7.85;6.40;;;;;;;17.27;49.83;102463.41;1707213;82;20994;-49
2022/10/13 04:31:20;;;;;;;9.08;6.60;;;;;;;17.28;49.91;102467.78;1704967;82;21018;-50
2022/10/13 04:33:48;;;;;;;8.08;6.25;;;;;;;17.30;50.07;102471.69;1705352;82;20998;-50
2022/10/13 04:36:16;;;;;;;8.15;6.62;;;;;;;17.32;50.07;102472.08;1705247;82;21523;-49
2022/10/13 04:38:44;;;;;;;8.30;6.78;;;;;;;17.32;50.22;102473.83;1705643;82;21027;-50
2022/10/13 04:41:13;;;;;;;8.98;6.90;;;;;;;17.32;50.37;102477.34;1705857;82;21033;-49
2022/10/13 04:43:39;;;;;;;7.67;6.70;;;;;;;17.34;50.44;102475.54;1719846;83;21050;-51
2022/10/13 04:46:12;;;;;;;8.90;6.37;;;;;;;17.37;50.52;102475.45;1710681;82;21130;-50
2022/10/13 04:48:39;;;;;;;9.18;6.85;;;;;;;17.39;50.64;102477.63;1671656;84;21129;-50
2022/10/13 04:51:09;;;;;;;8.15;6.58;;;;;;;17.39;50.84;102481.58;1666653;84;21014;-50
2022/10/13 04:53:36;;;;;;;8.70;6.78;;;;;;;17.40;50.99;102481.98;1664219;85;21033;-49
2022/10/13 04:56:09;;;;;;;11.05;7.15;;;;;;;17.42;51.03;102484.13;1666000;84;21113;-52
2022/10/13 04:58:37;;;;;;;8.93;7.05;;;;;;;17.46;51.10;102485.78;1633800;86;21558;-49
2022/10/13 05:01:05;;;;;;;8.40;6.50;;;;;;;17.49;51.20;102491.03;1629431;86;21035;-49
2022/10/13 05:03:33;;;;;;;8.25;6.70;;;;;;;17.49;51.13;102488.39;1628531;86;21046;-50
2022/10/13 05:06:00;;;;;;;10.58;6.47;;;;;;;17.48;51.20;102481.34;1628504;86;21070;-50
2022/10/13 05:08:27;;;;;;;12.07;6.70;;;;;;;17.48;51.29;102487.93;1627969;86;21522;-50
2022/10/13 05:11:00;;;;;;;8.48;6.87;;;;;;;17.49;51.33;102491.44;1628517;86;21514;-50
2022/10/13 05:13:28;;;;;;;10.20;7.00;;;;;;;17.48;51.37;102491.88;1628432;88;21026;-49
2022/10/13 05:15:58;;;;;;;;;;;;;;;17.47;51.10;102503.33;1630589;86;21090;-50
2022/10/13 05:18:25;;;;;;;9.13;6.90;;;;;;;17.45;51.02;102497.23;1628440;86;20190;-49
2022/10/13 05:20:52;;;;;;;11.93;6.55;;;;;;;17.45;51.02;102506.44;1628499;86;21101;-51
2022/10/13 05:23:19;;;;;;;8.48;6.90;;;;;;;17.44;51.20;102503.38;1627917;88;21042;-50
2022/10/13 05:25:47;;;;;;;9.78;6.47;;;;;;;17.45;51.29;102505.13;1628549;86;21054;-50
2022/10/13 05:28:14;;;;;;;8.88;6.33;;;;;;;17.50;51.29;102513.80;1627742;86;21022;-49
2022/10/13 05:30:42;;;;;;;7.37;6.40;;;;;;;17.54;51.13;102506.25;1627927;86;21102;-50
2022/10/13 05:33:09;;;;;;;13.65;6.70;;;;;;;17.59;50.96;102508.34;1628216;86;21137;-52
2022/10/13 05:35:37;;;;;;;12.07;7.30;;;;;;;17.63;50.93;102517.02;1628354;86;21056;-52
2022/10/13 05:38:04;;;;;;;9.15;7.22;;;;;;;17.69;50.88;102517.75;1628545;86;21594;-49
2022/10/13 05:40:32;;;;;;;10.45;6.72;;;;;;;17.74;51.02;102529.02;1628218;86;21970;-50
2022/10/13 05:42:59;;;;;;;6.85;5.85;;;;;;;17.79;51.10;102527.16;1628524;88;21069;-50
2022/10/13 05:45:28;;;;;;;7.30;6.05;;;;;;;17.82;51.09;102528.42;1657572;84;21071;-51
2022/10/13 05:47:55;;;;;;;7.60;5.53;;;;;;;17.85;51.12;102527.45;1670985;84;21048;-49
2022/10/13 05:50:21;;;;;;;9.28;6.25;;;;;;;17.87;51.21;102527.84;1682660;84;21544;-49
2022/10/13 05:52:48;;;;;;;9.73;6.30;;;;;;;17.92;51.17;102530.38;1682866;85;21016;-52
2022/10/13 05:55:15;;;;;;;10.53;6.03;;;;;;;17.98;51.24;102535.48;1682876;84;21071;-50
2022/10/13 05:57:45;;;;;;;12.07;6.10;;;;;;;18.05;50.99;102533.58;1682783;84;21048;-50
2022/10/13 06:00:14;;;;;;;7.00;5.53;;;;;;;18.12;50.97;102536.45;1681462;84;21380;-49
2022/10/13 06:02:55;;;;;;;7.58;5.65;;;;;;;18.19;50.76;102535.41;1696693;82;21005;-49
2022/10/13 06:05:24;;;;;;;14.18;5.90;;;;;;;18.24;50.56;102529.55;1688499;82;21029;-50
2022/10/13 06:07:52;;;;;;;9.18;5.85;;;;;;;18.30;50.31;102534.70;1702789;84;21485;-50
2022/10/13 06:10:21;;;;;;;9.53;5.65;;;;;;;18.34;50.22;102527.97;1683769;84;21514;-50
2022/10/13 06:12:49;;;;;;;9.43;5.65;;;;;;;18.40;50.15;102528.28;1703828;82;21087;-49
2022/10/13 06:15:17;;;;;;;10.90;5.28;;;;;;;18.44;50.03;102527.34;1687935;82;21053;-50
2022/10/13 06:17:44;;;;;;;9.65;5.37;;;;;;;18.46;50.03;102534.75;1702606;84;20973;-49
2022/10/13 06:20:10;;;;;;;7.28;5.25;;;;;;;18.46;49.91;102525.08;1704162;82;21065;-50
2022/10/13 06:22:37;;;;;;;9.10;5.72;;;;;;;18.48;49.96;102528.98;1703520;82;21306;-51
2022/10/13 06:25:08;;;;;;;7.87;4.83;;;;;;;18.50;49.97;102533.31;1694032;82;21017;-49
2022/10/13 06:27:35;;;;;;;5.78;4.42;;;;;;;18.55;50.04;102537.12;1701090;80;21000;-56
2022/10/13 06:30:02;;;;;;;5.47;4.00;;;;;;;18.61;50.01;102536.95;1702824;82;21009;-50
2022/10/13 06:32:29;;;;;;;5.80;3.77;;;;;;;18.68;50.02;102534.14;1703692;82;21013;-50
2022/10/13 06:34:55;;;;;;;5.75;3.60;;;;;;;18.77;49.85;102534.34;1702784;82;21569;-50
2022/10/13 06:37:22;;;;;;;6.60;3.75;;;;;;;18.85;49.48;102525.77;1701243;82;21061;-51
2022/10/13 06:39:49;;;;;;;5.97;3.17;;;;;;;18.95;49.14;102532.50;1702629;82;21049;-52
2022/10/13 06:42:15;;;;;;;5.40;2.80;;;;;;;19.05;48.80;102539.24;1698540;84;21017;-50
2022/10/13 06:44:44;;;;;;;5.33;3.17;;;;;;;19.14;48.67;102538.99;1705564;82;21041;-49
2022/10/13 06:47:11;;;;;;;7.50;3.15;;;;;;;19.22;47.69;102539.63;1702646;82;21021;-50
2022/10/13 06:49:37;;;;;;;4.92;3.15;;;;;;;19.29;47.47;102542.48;1700729;82;21001;-53
2022/10/13 06:52:04;;;;;;;5.05;3.20;;;;;;;19.37;47.25;102544.47;1700984;82;21061;-49
2022/10/13 06:54:31;;;;;;;4.08;3.37;;;;;;;19.43;47.10;102545.60;1700841;82;21037;-49
2022/10/13 06:56:58;;;;;;;5.92;3.47;;;;;;;19.52;47.04;102546.23;1701238;82;21486;-50
2022/10/13 06:59:26;;;;;;;4.53;3.00;;;;;;;19.59;46.88;102549.11;1701736;82;21073;-49
2022/10/13 07:01:54;;;;;;;7.42;3.17;;;;;;;19.65;46.82;102545.83;1706932;82;21529;-52
2022/10/13 07:04:21;;;;;;;4.83;3.08;;;;;;;19.71;46.47;102550.92;1702455;83;21050;-50
2022/10/13 07:06:50;;;;;;;4.85;3.10;;;;;;;19.77;46.30;102549.85;1700408;82;21028;-52
2022/10/13 07:09:18;;;;;;;4.92;2.62;;;;;;;19.83;46.10;102554.94;1704008;82;21493;-50
2022/10/13 07:11:46;;;;;;;4.87;3.65;;;;;;;19.87;45.99;102552.16;1703480;82;21097;-50
2022/10/13 07:14:13;;;;;;;8.70;3.25;;;;;;;19.93;45.76;102549.77;1705226;82;21081;-50
2022/10/13 07:16:40;;;;;;;3.75;2.65;;;;;;;19.96;45.33;102545.72;1702422;83;21506;-51
2022/10/13 07:19:07;;;;;;;6.47;3.33;;;;;;;20.00;45.27;102538.09;1704845;82;20998;-50
2022/10/13 07:21:36;;;;;;;4.83;2.90;;;;;;;20.04;45.47;102543.69;1703892;82;21530;-49
2022/10/13 07:24:04;;;;;;;3.80;2.60;;;;;;;20.10;45.45;102544.36;1703714;82;20999;-49
2022/10/13 07:26:32;;;;;;;4.20;2.70;;;;;;;20.17;45.12;102540.58;1703572;82;21076;-50
2022/10/13 07:29:00;;;;;;;6.47;3.00;;;;;;;20.22;44.88;102534.73;1704130;82;21046;-49
2022/10/13 07:31:27;;;;;;;3.92;2.60;;;;;;;20.30;44.68;102537.09;1704749;82;21007;-50
2022/10/13 07:33:55;;;;;;;5.58;2.77;;;;;;;20.34;44.77;102540.05;1706735;82;20995;-49
2022/10/13 07:36:24;;;;;;;4.95;2.70;;;;;;;20.37;44.63;102533.34;1705605;82;20998;-49
2022/10/13 07:38:52;;;;;;;4.60;2.72;;;;;;;20.41;44.54;102532.32;1705354;82;21523;-50
2022/10/13 07:41:19;;;;;;;4.95;2.90;;;;;;;20.45;44.56;102531.30;1705337;82;21014;-49
2022/10/13 07:43:46;;;;;;;5.28;2.35;;;;;;;20.48;44.47;102532.98;1705901;83;21006;-49
2022/10/13 07:46:12;;;;;;;5.53;3.20;;;;;;;20.52;44.74;102535.47;1694038;82;21077;-50
2022/10/13 07:48:40;;;;;;;6.58;3.40;;;;;;;20.55;44.87;102531.83;1704809;82;21105;-49
2022/10/13 07:51:10;;;;;;;5.28;3.22;;;;;;;20.57;45.16;102534.83;1705303;82;21087;-50
2022/10/13 07:53:40;;;;;;;4.92;3.10;;;;;;;20.58;45.37;102533.94;1710460;84;21516;-50
2022/10/13 07:56:09;;;;;;;5.08;3.33;;;;;;;20.57;45.23;102544.09;1673317;86;21493;-50
2022/10/13 07:58:38;;;;;;;7.03;3.50;;;;;;;20.56;45.21;102539.73;1673645;84;21048;-50
2022/10/13 08:01:05;;;;;;;5.28;3.40;;;;;;;20.52;45.34;102538.11;1672619;84;21061;-49
2022/10/13 08:03:34;;;;;;;7.30;3.00;;;;;;;20.49;45.36;102540.85;1669096;84;21057;-50
2022/10/13 08:06:03;;;;;;;5.28;2.98;;;;;;;20.48;45.50;102547.08;1671377;84;21065;-50
2022/10/13 08:08:30;;;;;;;5.75;3.05;;;;;;;20.47;45.63;102544.01;1671496;84;21049;-49
2022/10/13 08:11:07;;;;;;;5.87;2.98;;;;;;;20.50;45.58;102542.59;1671543;86;21072;-50
2022/10/13 08:13:34;;;;;;;4.45;2.75;;;;;;;20.53;45.60;102541.15;1671491;84;21017;-50
2022/10/13 08:16:03;;;;;;;6.15;3.10;;;;;;;20.57;45.73;102548.05;1671529;84;21025;-50
2022/10/13 08:18:30;;;;;;;6.53;3.05;;;;;;;20.60;45.57;102540.03;1671726;86;21052;-49
2022/10/13 08:20:59;;;;;;;4.78;3.33;;;;;;;20.63;45.42;102535.94;1671393;84;21526;-49
2022/10/13 08:23:44;;;;;;;6.97;2.80;;;;;;;20.64;45.10;102535.04;1669667;84;21111;-48
2022/10/13 08:26:18;;;;;;;5.15;3.05;;;;;;;20.65;45.28;102538.07;1671360;84;21065;-52
2022/10/13 08:28:46;;;;;;;6.35;3.08;;;;;;;20.66;45.27;102533.66;1594155;90;21082;-49
2022/10/13 08:31:13;;;;;;;4.58;2.92;;;;;;;20.70;45.08;102528.66;1587796;90;21142;-51
2022/10/13 08:33:41;;;;;;;6.05;3.17;;;;;;;20.73;45.08;102536.02;1586228;90;21134;-50
2022/10/13 08:36:09;;;;;;;6.03;3.37;;;;;;;20.74;45.02;102537.75;1559605;91;21118;-53
2022/10/13 08:38:36;;;;;;;5.08;3.02;;;;;;;20.77;45.00;102534.14;1563331;91;21127;-50
2022/10/13 08:41:03;;;;;;;5.55;3.33;;;;;;;20.77;44.74;102537.63;1569442;91;21597;-50
2022/10/13 08:43:29;;;;;;;6.87;3.72;;;;;;;20.74;44.63;102535.11;1591097;89;21343;-49
2022/10/13 08:45:59;;;;;;;7.03;3.10;;;;;;;20.72;44.75;102532.98;1588029;90;21094;-52
2022/10/13 08:48:32;;;;;;;6.17;3.40;;;;;;;20.72;44.93;102530.78;1615559;88;21159;-53
2022/10/13 08:51:00;;;;;;;;;;;;;;;20.73;44.53;102530.72;1624571;88;21098;-50
2022/10/13 08:53:36;;;;;;;5.83;2.85;;;;;;;20.75;44.58;102535.50;1619585;88;20112;-49
2022/10/13 08:56:29;;;;;;;6.60;2.98;;;;;;;20.78;44.49;102527.92;1627747;88;21010;-50
2022/10/13 08:58:56;;;;;;;4.75;3.02;;;;;;;20.81;44.44;102535.28;1621993;88;21084;-49
2022/10/13 09:01:30;;;;;;;4.65;3.12;;;;;;;20.84;44.52;102536.50;1620998;87;21082;-50
2022/10/13 09:04:26;;;;;;;6.45;3.50;;;;;;;20.87;44.63;102533.77;1619845;88;21026;-49
2022/10/13 09:07:04;;;;;;;5.47;2.95;;;;;;;20.91;44.61;102537.16;1619987;87;21049;-50
2022/10/13 09:09:32;;;;;;;5.80;2.90;;;;;;;20.95;44.38;102536.98;1623890;88;21551;-49
2022/10/13 09:11:59;;;;;;;5.35;3.00;;;;;;;20.97;44.08;102536.47;1618640;88;21072;-51
2022/10/13 09:14:33;;;;;;;4.58;2.80;;;;;;;20.99;43.53;102537.73;1620561;88;21046;-50
2022/10/13 09:17:21;;;;;;;5.55;3.08;;;;;;;21.01;43.44;102534.11;1621498;88;21089;-49
2022/10/13 09:20:05;;;;;;;3.58;2.55;;;;;;;21.04;43.15;102533.17;1627575;88;20998;-49
2022/10/13 09:22:35;;;;;;;4.90;2.65;;;;;;;21.06;43.02;102539.28;1610411;88;20986;-49
2022/10/13 09:25:18;;;;;;;4.05;2.85;;;;;;;21.08;43.07;102540.92;1604066;87;21022;-50
2022/10/13 09:27:59;;;;;;;6.12;2.87;;;;;;;21.12;42.57;102536.85;1562079;91;21086;-51
2022/10/13 09:30:38;;;;;;;5.97;2.60;;;;;;;21.14;42.43;102541.63;1562125;90;21082;-51
2022/10/13 09:33:13;;;;;;;3.87;2.40;;;;;;;21.13;42.22;102535.46;1627105;86;21004;-49
2022/10/13 09:35:46;;;;;;;7.67;2.70;;;;;;;21.15;42.19;102543.34;1631084;86;21008;-49
2022/10/13 09:38:20;;;;;;;8.35;2.85;;;;;;;21.16;42.02;102531.84;1642056;87;21017;-49
2022/10/13 09:41:14;;;;;;;5.75;2.55;;;;;;;21.16;41.80;102531.84;1641982;87;21064;-50
2022/10/13 09:43:49;;;;;;;4.95;2.55;;;;;;;21.17;41.61;102532.23;1642547;87;21531;-49
2022/10/13 09:46:35;;;;;;;;;;;;;;;21.18;41.14;102528.23;1644469;87;21064;-51
2022/10/13 09:49:09;;;;;;;8.58;2.45;;;;;;;21.18;41.24;102524.70;1641811;87;20122;-48
2022/10/13 09:51:40;;;;;;;3.87;2.60;;;;;;;21.19;41.31;102521.13;1638984;87;21504;-50
2022/10/13 09:54:45;;;;;;;6.03;2.75;;;;;;;21.22;41.60;102519.70;1638448;87;21669;-54
2022/10/13 09:57:32;;;;;;;;;;;;;;;21.23;41.52;102526.25;1644551;87;21056;-54
2022/10/13 10:00:13;;;;;;;5.72;2.35;;;;;;;21.26;41.27;102526.60;1642059;87;20111;-49
2022/10/13 10:02:48;;;;;;;6.03;2.37;;;;;;;21.25;41.24;102520.88;1647886;87;21067;-49
2022/10/13 10:05:29;;;;;;;4.87;2.58;;;;;;;21.24;41.09;102519.18;1674754;83;21019;-48
2022/10/13 10:08:04;;;;;;;4.05;2.42;;;;;;;21.24;40.82;102517.85;1705615;82;20994;-49
2022/10/13 10:10:35;;;;;;;4.33;2.25;;;;;;;21.24;40.57;102515.20;1710425;82;21030;-52
2022/10/13 10:13:11;;;;;;;6.50;3.02;;;;;;;21.25;40.08;102511.63;1701006;82;21062;-49
2022/10/13 10:16:29;;;;;;;4.65;2.62;;;;;;;21.28;39.77;102507.55;1697779;82;21011;-50
2022/10/13 10:19:19;;;;;;;5.50;2.35;;;;;;;21.32;40.19;102512.67;1702606;82;21054;-51
2022/10/13 10:21:55;;;;;;;5.42;2.40;;;;;;;21.43;39.71;102516.23;1702038;82;21038;-48
2022/10/13 10:24:36;;;;;;;4.40;2.52;;;;;;;21.47;38.80;102505.92;1672924;84;21075;-49
2022/10/13 10:27:07;;;;;;;6.65;2.12;;;;;;;21.49;38.79;102508.05;1684404;84;21043;-50
2022/10/13 10:29:53;;;;;;;3.42;2.00;;;;;;;21.52;38.64;102506.58;1661653;85;21051;-49
2022/10/13 10:32:37;;;;;;;5.75;2.17;;;;;;;21.54;38.29;102504.73;1661887;85;21059;-54
2022/10/13 10:35:15;;;;;;;5.03;2.08;;;;;;;21.56;38.36;102502.88;1630724;86;21570;-53
2022/10/13 10:38:09;;;;;;;4.00;2.25;;;;;;;21.55;38.12;102500.72;1684207;84;21119;-49
2022/10/13 10:41:08;;;;;;;5.90;2.37;;;;;;;21.56;38.08;102498.91;1681295;84;21043;-48
2022/10/13 10:43:49;;;;;;;5.58;2.25;;;;;;;21.57;38.04;102496.68;1683407;84;21074;-48
2022/10/13 10:46:22;;;;;;;4.30;1.90;;;;;;;21.56;38.04;102495.81;1644084;86;21177;-48
2022/10/13 10:48:54;;;;;;;5.80;2.25;;;;;;;21.58;38.35;102493.09;1684165;84;21566;-48
2022/10/13 10:51:23;;;;;;;3.05;2.00;;;;;;;21.62;38.22;102489.39;1642543;86;21018;-48
2022/10/13 10:54:02;;;;;;;3.42;1.80;;;;;;;21.66;38.38;102488.34;1684185;84;21036;-48
2022/10/13 10:56:39;;;;;;;4.15;2.10;;;;;;;21.73;37.83;102491.16;1656605;84;21039;-49
2022/10/13 10:59:49;;;;;;;5.03;2.50;;;;;;;21.80;37.17;102492.65;1684263;84;21116;-49
2022/10/13 11:02:48;;;;;;;4.20;2.40;;;;;;;21.84;36.59;102487.66;1694638;82;21058;-50
2022/10/13 11:05:15;;;;;;;4.33;2.02;;;;;;;21.84;36.42;102482.35;1695261;83;21511;-49
2022/10/13 11:07:48;;;;;;;4.03;1.80;;;;;;;21.82;36.51;102481.55;1707713;82;21511;-49
2022/10/13 11:10:20;;;;;;;5.20;1.87;;;;;;;21.82;36.30;102476.25;1706793;82;20999;-53
2022/10/13 11:12:57;;;;;;;3.65;2.12;;;;;;;21.82;36.04;102478.91;1700668;82;20994;-49
2022/10/13 11:15:29;;;;;;;4.40;2.17;;;;;;;21.78;35.89;102473.30;1696454;82;21121;-55
2022/10/13 11:17:56;;;;;;;3.57;1.60;;;;;;;21.71;35.77;102478.44;1673446;85;21030;-48
2022/10/13 11:20:34;;;;;;;3.62;1.57;;;;;;;21.65;35.93;102476.04;1659188;84;21122;-49
2022/10/13 11:23:14;;;;;;;4.15;1.80;;;;;;;21.61;36.11;102471.79;1659285;85;21047;-51
2022/10/13 11:25:46;;;;;;;2.45;1.75;;;;;;;21.58;36.02;102471.90;1659261;84;21047;-50
2022/10/13 11:28:26;;;;;;;4.50;1.90;;;;;;;21.55;35.69;102472.04;1659541;84;21130;-49
2022/10/13 11:31:23;;;;;;;2.58;1.47;;;;;;;21.55;36.03;102475.56;1659329;84;21011;-51
2022/10/13 11:33:53;;;;;;;4.92;2.60;;;;;;;21.56;35.52;102475.07;1658463;84;21043;-50
2022/10/13 11:36:46;;;;;;;4.10;2.25;;;;;;;21.55;35.28;102479.98;1669258;84;21466;-52
2022/10/13 11:39:28;;;;;;;5.12;1.70;;;;;;;21.56;35.67;102480.37;1661053;84;21098;-51
2022/10/13 11:42:09;;;;;;;3.30;1.82;;;;;;;21.54;35.30;102475.59;1658818;84;21075;-49
2022/10/13 11:44:56;;;;;;;3.37;2.17;;;;;;;21.53;35.35;102468.59;1589699;90;21101;-49
2022/10/13 11:47:36;;;;;;;3.67;1.95;;;;;;;21.53;35.56;102471.24;1598715;88;21048;-49